sensor_id;sensor_type;location;lat;lon;timestamp;P1;durP1;ratioP1;P2;durP2;ratioP2
33714;SDS011;20043;50.998;4.754;2023-04-03T00:01:34;8.32;;;6.07;;
33714;SDS011;20043;50.998;4.754;2023-04-03T00:04:03;11.43;;;6.35;;
33714;SDS011;20043;50.998;4.754;2023-04-03T00:06:29;12.15;;;6.70;;
33714;SDS011;20043;50.998;4.754;2023-04-03T00:08:55;13.43;;;6.15;;
33714;SDS011;20043;50.998;4.754;2023-04-03T00:11:21;12.70;;;6.75;;
33714;SDS011;20043;50.998;4.754;2023-04-03T00:13:46;11.20;;;6.35;;
33714;SDS011;20043;50.998;4.754;2023-04-03T00:16:12;8.93;;;5.72;;
33714;SDS011;20043;50.998;4.754;2023-04-03T00:18:38;10.98;;;6.03;;
33714;SDS011;20043;50.998;4.754;2023-04-03T00:21:05;9.80;;;5.63;;
33714;SDS011;20043;50.998;4.754;2023-04-03T00:23:31;13.30;;;6.13;;
33714;SDS011;20043;50.998;4.754;2023-04-03T00:25:57;16.10;;;6.30;;
33714;SDS011;20043;50.998;4.754;2023-04-03T00:28:22;13.23;;;6.22;;
33714;SDS011;20043;50.998;4.754;2023-04-03T00:30:48;10.45;;;6.05;;
33714;SDS011;20043;50.998;4.754;2023-04-03T00:33:15;13.60;;;6.47;;
33714;SDS011;20043;50.998;4.754;2023-04-03T00:35:41;9.80;;;6.10;;
33714;SDS011;20043;50.998;4.754;2023-04-03T00:38:07;8.50;;;6.10;;
33714;SDS011;20043;50.998;4.754;2023-04-03T00:40:37;11.55;;;5.85;;
33714;SDS011;20043;50.998;4.754;2023-04-03T00:43:14;14.32;;;6.15;;
33714;SDS011;20043;50.998;4.754;2023-04-03T00:45:46;9.85;;;6.30;;
33714;SDS011;20043;50.998;4.754;2023-04-03T00:48:15;14.68;;;6.60;;
33714;SDS011;20043;50.998;4.754;2023-04-03T00:50:45;9.60;;;5.88;;
33714;SDS011;20043;50.998;4.754;2023-04-03T00:53:12;11.57;;;6.10;;
33714;SDS011;20043;50.998;4.754;2023-04-03T00:55:42;10.55;;;6.43;;
33714;SDS011;20043;50.998;4.754;2023-04-03T00:58:08;13.73;;;6.35;;
33714;SDS011;20043;50.998;4.754;2023-04-03T01:00:36;10.75;;;6.25;;
33714;SDS011;20043;50.998;4.754;2023-04-03T01:03:05;13.05;;;6.45;;
33714;SDS011;20043;50.998;4.754;2023-04-03T01:05:31;9.43;;;6.45;;
33714;SDS011;20043;50.998;4.754;2023-04-03T01:07:57;13.15;;;6.18;;
33714;SDS011;20043;50.998;4.754;2023-04-03T01:10:23;12.10;;;6.53;;
33714;SDS011;20043;50.998;4.754;2023-04-03T01:12:50;14.82;;;6.47;;
33714;SDS011;20043;50.998;4.754;2023-04-03T01:15:24;12.10;;;6.55;;
33714;SDS011;20043;50.998;4.754;2023-04-03T01:17:52;11.77;;;6.03;;
33714;SDS011;20043;50.998;4.754;2023-04-03T01:25:36;10.68;;;5.97;;
33714;SDS011;20043;50.998;4.754;2023-04-03T01:28:03;13.38;;;6.63;;
33714;SDS011;20043;50.998;4.754;2023-04-03T01:30:31;13.90;;;6.95;;
33714;SDS011;20043;50.998;4.754;2023-04-03T01:33:00;9.45;;;5.65;;
33714;SDS011;20043;50.998;4.754;2023-04-03T01:35:26;15.02;;;5.90;;
33714;SDS011;20043;50.998;4.754;2023-04-03T01:37:52;12.43;;;5.57;;
33714;SDS011;20043;50.998;4.754;2023-04-03T01:40:18;12.70;;;6.35;;
33714;SDS011;20043;50.998;4.754;2023-04-03T01:42:44;13.95;;;6.03;;
33714;SDS011;20043;50.998;4.754;2023-04-03T01:45:10;14.80;;;6.03;;
33714;SDS011;20043;50.998;4.754;2023-04-03T01:47:36;11.90;;;6.13;;
33714;SDS011;20043;50.998;4.754;2023-04-03T01:50:01;13.15;;;6.10;;
33714;SDS011;20043;50.998;4.754;2023-04-03T01:52:27;11.68;;;5.80;;
33714;SDS011;20043;50.998;4.754;2023-04-03T01:54:53;13.68;;;5.85;;
33714;SDS011;20043;50.998;4.754;2023-04-03T01:57:18;12.18;;;6.22;;
33714;SDS011;20043;50.998;4.754;2023-04-03T01:59:44;12.65;;;6.57;;
33714;SDS011;20043;50.998;4.754;2023-04-03T02:02:09;9.98;;;5.63;;
33714;SDS011;20043;50.998;4.754;2023-04-03T02:04:37;9.60;;;5.85;;
33714;SDS011;20043;50.998;4.754;2023-04-03T02:07:03;11.65;;;6.78;;
33714;SDS011;20043;50.998;4.754;2023-04-03T02:09:29;11.80;;;6.70;;
33714;SDS011;20043;50.998;4.754;2023-04-03T02:11:54;10.52;;;6.45;;
33714;SDS011;20043;50.998;4.754;2023-04-03T02:14:20;11.45;;;6.47;;
33714;SDS011;20043;50.998;4.754;2023-04-03T02:16:46;9.95;;;5.60;;
33714;SDS011;20043;50.998;4.754;2023-04-03T02:19:12;13.95;;;6.30;;
33714;SDS011;20043;50.998;4.754;2023-04-03T02:21:38;12.68;;;6.50;;
33714;SDS011;20043;50.998;4.754;2023-04-03T02:24:03;10.10;;;5.68;;
33714;SDS011;20043;50.998;4.754;2023-04-03T02:26:30;10.93;;;6.07;;
33714;SDS011;20043;50.998;4.754;2023-04-03T02:28:55;13.73;;;6.82;;
33714;SDS011;20043;50.998;4.754;2023-04-03T02:31:21;12.45;;;6.30;;
33714;SDS011;20043;50.998;4.754;2023-04-03T02:33:47;10.75;;;6.55;;
33714;SDS011;20043;50.998;4.754;2023-04-03T02:36:13;12.10;;;6.55;;
33714;SDS011;20043;50.998;4.754;2023-04-03T02:38:38;12.38;;;6.68;;
33714;SDS011;20043;50.998;4.754;2023-04-03T02:41:05;13.63;;;7.13;;
33714;SDS011;20043;50.998;4.754;2023-04-03T02:43:32;16.42;;;6.53;;
33714;SDS011;20043;50.998;4.754;2023-04-03T02:45:58;10.88;;;7.07;;
33714;SDS011;20043;50.998;4.754;2023-04-03T02:48:24;10.90;;;6.50;;
33714;SDS011;20043;50.998;4.754;2023-04-03T02:50:50;10.00;;;7.03;;
33714;SDS011;20043;50.998;4.754;2023-04-03T02:53:16;11.77;;;7.05;;
33714;SDS011;20043;50.998;4.754;2023-04-03T02:55:42;10.38;;;6.63;;
33714;SDS011;20043;50.998;4.754;2023-04-03T02:58:08;16.75;;;7.13;;
33714;SDS011;20043;50.998;4.754;2023-04-03T03:00:34;14.52;;;7.60;;
33714;SDS011;20043;50.998;4.754;2023-04-03T03:03:00;16.15;;;8.13;;
33714;SDS011;20043;50.998;4.754;2023-04-03T03:05:26;9.98;;;7.47;;
33714;SDS011;20043;50.998;4.754;2023-04-03T03:07:52;11.35;;;7.28;;
33714;SDS011;20043;50.998;4.754;2023-04-03T03:10:18;11.00;;;7.22;;
33714;SDS011;20043;50.998;4.754;2023-04-03T03:12:43;13.82;;;7.53;;
33714;SDS011;20043;50.998;4.754;2023-04-03T03:15:09;10.85;;;7.90;;
33714;SDS011;20043;50.998;4.754;2023-04-03T03:17:35;18.75;;;8.45;;
33714;SDS011;20043;50.998;4.754;2023-04-03T03:20:01;16.27;;;9.63;;
33714;SDS011;20043;50.998;4.754;2023-04-03T03:22:28;13.40;;;9.20;;
33714;SDS011;20043;50.998;4.754;2023-04-03T03:24:53;12.48;;;8.93;;
33714;SDS011;20043;50.998;4.754;2023-04-03T03:27:19;17.20;;;9.55;;
33714;SDS011;20043;50.998;4.754;2023-04-03T03:29:45;13.52;;;9.75;;
33714;SDS011;20043;50.998;4.754;2023-04-03T03:32:11;16.02;;;9.77;;
33714;SDS011;20043;50.998;4.754;2023-04-03T03:34:36;18.33;;;10.30;;
33714;SDS011;20043;50.998;4.754;2023-04-03T03:37:02;14.65;;;8.82;;
33714;SDS011;20043;50.998;4.754;2023-04-03T03:39:28;13.30;;;8.93;;
33714;SDS011;20043;50.998;4.754;2023-04-03T03:41:54;14.32;;;8.38;;
33714;SDS011;20043;50.998;4.754;2023-04-03T03:44:20;15.10;;;9.50;;
33714;SDS011;20043;50.998;4.754;2023-04-03T03:46:45;17.10;;;8.63;;
33714;SDS011;20043;50.998;4.754;2023-04-03T03:49:11;15.20;;;9.05;;
33714;SDS011;20043;50.998;4.754;2023-04-03T03:51:37;14.20;;;9.13;;
33714;SDS011;20043;50.998;4.754;2023-04-03T03:54:03;16.15;;;9.30;;
33714;SDS011;20043;50.998;4.754;2023-04-03T03:56:29;15.57;;;9.75;;
33714;SDS011;20043;50.998;4.754;2023-04-03T03:58:55;14.30;;;9.75;;
33714;SDS011;20043;50.998;4.754;2023-04-03T04:01:21;17.45;;;9.27;;
33714;SDS011;20043;50.998;4.754;2023-04-03T04:03:47;15.77;;;9.30;;
33714;SDS011;20043;50.998;4.754;2023-04-03T04:06:13;16.58;;;9.40;;
33714;SDS011;20043;50.998;4.754;2023-04-03T04:08:39;16.52;;;9.63;;
33714;SDS011;20043;50.998;4.754;2023-04-03T04:11:05;17.38;;;9.95;;
33714;SDS011;20043;50.998;4.754;2023-04-03T04:13:30;17.45;;;9.43;;
33714;SDS011;20043;50.998;4.754;2023-04-03T04:15:56;17.02;;;10.10;;
33714;SDS011;20043;50.998;4.754;2023-04-03T04:18:21;17.90;;;11.05;;
33714;SDS011;20043;50.998;4.754;2023-04-03T04:20:47;18.40;;;10.27;;
33714;SDS011;20043;50.998;4.754;2023-04-03T04:23:13;18.50;;;10.20;;
33714;SDS011;20043;50.998;4.754;2023-04-03T04:25:39;16.60;;;9.82;;
33714;SDS011;20043;50.998;4.754;2023-04-03T04:28:05;16.67;;;10.15;;
33714;SDS011;20043;50.998;4.754;2023-04-03T04:30:31;17.45;;;9.40;;
33714;SDS011;20043;50.998;4.754;2023-04-03T04:32:57;14.82;;;9.10;;
33714;SDS011;20043;50.998;4.754;2023-04-03T04:35:22;16.27;;;8.18;;
33714;SDS011;20043;50.998;4.754;2023-04-03T04:37:48;14.25;;;9.15;;
33714;SDS011;20043;50.998;4.754;2023-04-03T04:40:13;12.55;;;8.98;;
33714;SDS011;20043;50.998;4.754;2023-04-03T04:42:39;11.88;;;8.40;;
33714;SDS011;20043;50.998;4.754;2023-04-03T04:45:05;13.55;;;9.30;;
33714;SDS011;20043;50.998;4.754;2023-04-03T04:47:31;15.32;;;9.93;;
33714;SDS011;20043;50.998;4.754;2023-04-03T04:49:56;12.30;;;9.23;;
33714;SDS011;20043;50.998;4.754;2023-04-03T04:52:22;15.93;;;9.98;;
33714;SDS011;20043;50.998;4.754;2023-04-03T04:54:47;12.80;;;9.70;;
33714;SDS011;20043;50.998;4.754;2023-04-03T04:57:13;11.85;;;8.43;;
33714;SDS011;20043;50.998;4.754;2023-04-03T04:59:39;18.50;;;8.90;;
33714;SDS011;20043;50.998;4.754;2023-04-03T05:02:04;15.73;;;9.00;;
33714;SDS011;20043;50.998;4.754;2023-04-03T05:04:30;13.18;;;9.25;;
33714;SDS011;20043;50.998;4.754;2023-04-03T05:06:56;14.98;;;9.68;;
33714;SDS011;20043;50.998;4.754;2023-04-03T05:09:21;14.93;;;9.30;;
33714;SDS011;20043;50.998;4.754;2023-04-03T05:11:47;16.80;;;9.65;;
33714;SDS011;20043;50.998;4.754;2023-04-03T05:14:12;12.65;;;9.32;;
33714;SDS011;20043;50.998;4.754;2023-04-03T05:16:38;11.65;;;8.90;;
33714;SDS011;20043;50.998;4.754;2023-04-03T05:19:04;13.18;;;9.52;;
33714;SDS011;20043;50.998;4.754;2023-04-03T05:21:30;18.15;;;8.95;;
33714;SDS011;20043;50.998;4.754;2023-04-03T05:23:58;15.82;;;9.60;;
33714;SDS011;20043;50.998;4.754;2023-04-03T05:26:24;15.55;;;10.25;;
33714;SDS011;20043;50.998;4.754;2023-04-03T05:28:51;14.75;;;9.85;;
33714;SDS011;20043;50.998;4.754;2023-04-03T05:31:16;19.15;;;11.70;;
33714;SDS011;20043;50.998;4.754;2023-04-03T05:33:42;19.48;;;10.65;;
33714;SDS011;20043;50.998;4.754;2023-04-03T05:36:08;17.67;;;10.95;;
33714;SDS011;20043;50.998;4.754;2023-04-03T05:38:34;14.98;;;10.35;;
33714;SDS011;20043;50.998;4.754;2023-04-03T05:40:59;15.60;;;11.60;;
33714;SDS011;20043;50.998;4.754;2023-04-03T05:43:25;17.83;;;11.18;;
33714;SDS011;20043;50.998;4.754;2023-04-03T05:45:51;20.73;;;13.23;;
33714;SDS011;20043;50.998;4.754;2023-04-03T05:48:17;24.00;;;13.23;;
33714;SDS011;20043;50.998;4.754;2023-04-03T05:50:42;18.15;;;10.55;;
33714;SDS011;20043;50.998;4.754;2023-04-03T05:53:17;14.23;;;9.25;;
33714;SDS011;20043;50.998;4.754;2023-04-03T05:55:48;17.85;;;8.57;;
33714;SDS011;20043;50.998;4.754;2023-04-03T05:58:14;20.70;;;8.07;;
33714;SDS011;20043;50.998;4.754;2023-04-03T06:00:39;13.60;;;6.80;;
33714;SDS011;20043;50.998;4.754;2023-04-03T06:03:05;14.57;;;5.90;;
33714;SDS011;20043;50.998;4.754;2023-04-03T06:05:31;13.38;;;6.30;;
33714;SDS011;20043;50.998;4.754;2023-04-03T06:07:56;12.75;;;6.43;;
33714;SDS011;20043;50.998;4.754;2023-04-03T06:10:22;12.50;;;6.93;;
33714;SDS011;20043;50.998;4.754;2023-04-03T06:12:48;12.88;;;6.60;;
33714;SDS011;20043;50.998;4.754;2023-04-03T06:15:15;12.93;;;6.05;;
33714;SDS011;20043;50.998;4.754;2023-04-03T06:17:42;15.05;;;6.90;;
33714;SDS011;20043;50.998;4.754;2023-04-03T06:20:08;12.55;;;6.70;;
33714;SDS011;20043;50.998;4.754;2023-04-03T06:22:34;11.80;;;6.90;;
33714;SDS011;20043;50.998;4.754;2023-04-03T06:25:00;13.75;;;6.82;;
33714;SDS011;20043;50.998;4.754;2023-04-03T06:27:26;16.95;;;6.60;;
33714;SDS011;20043;50.998;4.754;2023-04-03T06:29:51;15.10;;;7.28;;
33714;SDS011;20043;50.998;4.754;2023-04-03T06:32:17;12.68;;;7.00;;
33714;SDS011;20043;50.998;4.754;2023-04-03T06:34:42;9.45;;;6.38;;
33714;SDS011;20043;50.998;4.754;2023-04-03T06:37:16;17.42;;;7.10;;
33714;SDS011;20043;50.998;4.754;2023-04-03T06:39:43;17.52;;;7.03;;
33714;SDS011;20043;50.998;4.754;2023-04-03T06:42:10;12.70;;;7.30;;
33714;SDS011;20043;50.998;4.754;2023-04-03T06:44:36;14.60;;;7.03;;
33714;SDS011;20043;50.998;4.754;2023-04-03T06:47:02;14.23;;;7.90;;
33714;SDS011;20043;50.998;4.754;2023-04-03T06:49:27;14.00;;;7.40;;
33714;SDS011;20043;50.998;4.754;2023-04-03T06:51:54;15.25;;;7.53;;
33714;SDS011;20043;50.998;4.754;2023-04-03T06:54:20;14.30;;;7.60;;
33714;SDS011;20043;50.998;4.754;2023-04-03T06:56:46;15.85;;;7.28;;
33714;SDS011;20043;50.998;4.754;2023-04-03T06:59:11;13.90;;;7.32;;
33714;SDS011;20043;50.998;4.754;2023-04-03T07:01:38;18.10;;;7.43;;
33714;SDS011;20043;50.998;4.754;2023-04-03T07:04:05;12.68;;;7.20;;
33714;SDS011;20043;50.998;4.754;2023-04-03T07:06:31;12.85;;;5.90;;
33714;SDS011;20043;50.998;4.754;2023-04-03T07:08:58;13.90;;;7.05;;
33714;SDS011;20043;50.998;4.754;2023-04-03T07:11:24;12.57;;;6.28;;
33714;SDS011;20043;50.998;4.754;2023-04-03T07:13:51;15.27;;;6.72;;
33714;SDS011;20043;50.998;4.754;2023-04-03T07:16:17;14.45;;;6.78;;
33714;SDS011;20043;50.998;4.754;2023-04-03T07:18:43;11.40;;;6.10;;
33714;SDS011;20043;50.998;4.754;2023-04-03T07:21:09;10.05;;;5.90;;
33714;SDS011;20043;50.998;4.754;2023-04-03T07:23:35;12.35;;;5.80;;
33714;SDS011;20043;50.998;4.754;2023-04-03T07:26:01;13.30;;;5.78;;
33714;SDS011;20043;50.998;4.754;2023-04-03T07:28:27;11.32;;;5.65;;
33714;SDS011;20043;50.998;4.754;2023-04-03T07:31:00;11.70;;;5.68;;
33714;SDS011;20043;50.998;4.754;2023-04-03T07:33:34;12.25;;;5.47;;
33714;SDS011;20043;50.998;4.754;2023-04-03T07:36:00;8.93;;;5.13;;
33714;SDS011;20043;50.998;4.754;2023-04-03T07:38:26;12.25;;;6.45;;
33714;SDS011;20043;50.998;4.754;2023-04-03T07:40:52;10.90;;;5.25;;
33714;SDS011;20043;50.998;4.754;2023-04-03T07:43:18;13.40;;;6.20;;
33714;SDS011;20043;50.998;4.754;2023-04-03T07:45:46;10.85;;;5.13;;
33714;SDS011;20043;50.998;4.754;2023-04-03T07:48:14;12.85;;;5.97;;
33714;SDS011;20043;50.998;4.754;2023-04-03T07:50:40;9.98;;;4.78;;
33714;SDS011;20043;50.998;4.754;2023-04-03T07:53:06;10.15;;;4.85;;
33714;SDS011;20043;50.998;4.754;2023-04-03T07:55:32;9.70;;;5.03;;
33714;SDS011;20043;50.998;4.754;2023-04-03T07:57:58;15.43;;;5.07;;
33714;SDS011;20043;50.998;4.754;2023-04-03T08:00:24;12.18;;;4.90;;
33714;SDS011;20043;50.998;4.754;2023-04-03T08:02:50;11.20;;;4.40;;
33714;SDS011;20043;50.998;4.754;2023-04-03T08:05:17;14.88;;;4.68;;
33714;SDS011;20043;50.998;4.754;2023-04-03T08:07:44;11.60;;;4.05;;
33714;SDS011;20043;50.998;4.754;2023-04-03T08:10:11;10.43;;;3.95;;
33714;SDS011;20043;50.998;4.754;2023-04-03T08:12:37;13.10;;;4.78;;
33714;SDS011;20043;50.998;4.754;2023-04-03T08:15:02;10.90;;;4.57;;
33714;SDS011;20043;50.998;4.754;2023-04-03T08:17:29;7.13;;;3.83;;
33714;SDS011;20043;50.998;4.754;2023-04-03T08:19:54;9.38;;;4.50;;
33714;SDS011;20043;50.998;4.754;2023-04-03T08:22:20;9.20;;;3.70;;
33714;SDS011;20043;50.998;4.754;2023-04-03T08:24:46;11.13;;;4.10;;
33714;SDS011;20043;50.998;4.754;2023-04-03T08:27:11;8.30;;;3.55;;
33714;SDS011;20043;50.998;4.754;2023-04-03T08:29:37;8.23;;;3.80;;
33714;SDS011;20043;50.998;4.754;2023-04-03T08:32:03;12.60;;;3.72;;
33714;SDS011;20043;50.998;4.754;2023-04-03T08:34:29;12.90;;;3.85;;
33714;SDS011;20043;50.998;4.754;2023-04-03T08:36:55;11.25;;;3.67;;
33714;SDS011;20043;50.998;4.754;2023-04-03T08:39:21;8.40;;;4.03;;
33714;SDS011;20043;50.998;4.754;2023-04-03T08:41:46;9.30;;;3.78;;
33714;SDS011;20043;50.998;4.754;2023-04-03T08:44:25;9.15;;;3.83;;
33714;SDS011;20043;50.998;4.754;2023-04-03T08:49:47;8.05;;;2.97;;
33714;SDS011;20043;50.998;4.754;2023-04-03T08:52:38;9.02;;;3.95;;
33714;SDS011;20043;50.998;4.754;2023-04-03T08:55:28;12.93;;;3.53;;
33714;SDS011;20043;50.998;4.754;2023-04-03T09:00:58;6.07;;;2.58;;
33714;SDS011;20043;50.998;4.754;2023-04-03T09:03:32;8.13;;;2.75;;
33714;SDS011;20043;50.998;4.754;2023-04-03T09:06:03;9.57;;;3.38;;
33714;SDS011;20043;50.998;4.754;2023-04-03T09:11:58;9.43;;;2.78;;
33714;SDS011;20043;50.998;4.754;2023-04-03T09:14:49;7.32;;;3.08;;
33714;SDS011;20043;50.998;4.754;2023-04-03T09:26:11;9.57;;;3.25;;
33714;SDS011;20043;50.998;4.754;2023-04-03T09:28:41;9.85;;;2.90;;
33714;SDS011;20043;50.998;4.754;2023-04-03T09:34:52;9.27;;;2.90;;
33714;SDS011;20043;50.998;4.754;2023-04-03T09:37:03;8.73;;;3.00;;
33714;SDS011;20043;50.998;4.754;2023-04-03T09:39:31;9.98;;;3.45;;
33714;SDS011;20043;50.998;4.754;2023-04-03T09:42:34;13.60;;;4.35;;
33714;SDS011;20043;50.998;4.754;2023-04-03T09:45:18;11.40;;;3.40;;
33714;SDS011;20043;50.998;4.754;2023-04-03T09:50:33;8.75;;;2.83;;
33714;SDS011;20043;50.998;4.754;2023-04-03T09:53:02;8.15;;;2.80;;
33714;SDS011;20043;50.998;4.754;2023-04-03T09:55:31;9.15;;;2.58;;
33714;SDS011;20043;50.998;4.754;2023-04-03T09:58:01;6.57;;;2.45;;
33714;SDS011;20043;50.998;4.754;2023-04-03T10:00:36;8.15;;;3.45;;
33714;SDS011;20043;50.998;4.754;2023-04-03T10:03:05;5.75;;;2.30;;
33714;SDS011;20043;50.998;4.754;2023-04-03T10:05:47;9.77;;;2.55;;
33714;SDS011;20043;50.998;4.754;2023-04-03T10:10:47;5.68;;;2.10;;
33714;SDS011;20043;50.998;4.754;2023-04-03T10:13:29;9.68;;;3.05;;
33714;SDS011;20043;50.998;4.754;2023-04-03T10:18:28;8.85;;;2.05;;
33714;SDS011;20043;50.998;4.754;2023-04-03T10:26:41;4.93;;;1.90;;
33714;SDS011;20043;50.998;4.754;2023-04-03T10:32:43;5.00;;;2.13;;
33714;SDS011;20043;50.998;4.754;2023-04-03T10:38:01;6.10;;;1.90;;
33714;SDS011;20043;50.998;4.754;2023-04-03T10:54:46;5.25;;;1.80;;
33714;SDS011;20043;50.998;4.754;2023-04-03T10:57:17;5.00;;;2.10;;
33714;SDS011;20043;50.998;4.754;2023-04-03T10:59:49;6.18;;;1.65;;
33714;SDS011;20043;50.998;4.754;2023-04-03T11:05:14;7.72;;;2.08;;
33714;SDS011;20043;50.998;4.754;2023-04-03T11:07:51;6.38;;;1.92;;
33714;SDS011;20043;50.998;4.754;2023-04-03T11:13:19;6.93;;;1.58;;
33714;SDS011;20043;50.998;4.754;2023-04-03T11:15:50;6.22;;;1.67;;
33714;SDS011;20043;50.998;4.754;2023-04-03T11:18:22;5.95;;;1.90;;
33714;SDS011;20043;50.998;4.754;2023-04-03T11:20:58;5.25;;;1.77;;
33714;SDS011;20043;50.998;4.754;2023-04-03T11:23:34;3.97;;;1.88;;
33714;SDS011;20043;50.998;4.754;2023-04-03T11:26:14;4.50;;;2.00;;
33714;SDS011;20043;50.998;4.754;2023-04-03T11:28:46;4.10;;;1.60;;
33714;SDS011;20043;50.998;4.754;2023-04-03T11:39:31;5.07;;;1.67;;
33714;SDS011;20043;50.998;4.754;2023-04-03T11:42:23;6.95;;;1.75;;
33714;SDS011;20043;50.998;4.754;2023-04-03T11:48:41;5.95;;;1.50;;
33714;SDS011;20043;50.998;4.754;2023-04-03T11:50:59;2.72;;;1.13;;
33714;SDS011;20043;50.998;4.754;2023-04-03T11:53:47;8.70;;;2.10;;
33714;SDS011;20043;50.998;4.754;2023-04-03T12:04:20;4.95;;;1.77;;
33714;SDS011;20043;50.998;4.754;2023-04-03T12:09:30;3.85;;;1.27;;
33714;SDS011;20043;50.998;4.754;2023-04-03T12:12:37;5.10;;;1.80;;
33714;SDS011;20043;50.998;4.754;2023-04-03T12:15:18;5.47;;;1.70;;
33714;SDS011;20043;50.998;4.754;2023-04-03T12:17:47;4.13;;;1.60;;
33714;SDS011;20043;50.998;4.754;2023-04-03T12:20:45;6.07;;;1.70;;
33714;SDS011;20043;50.998;4.754;2023-04-03T12:26:00;4.57;;;1.75;;
33714;SDS011;20043;50.998;4.754;2023-04-03T12:28:50;3.45;;;1.60;;
33714;SDS011;20043;50.998;4.754;2023-04-03T12:31:18;5.75;;;1.60;;
33714;SDS011;20043;50.998;4.754;2023-04-03T12:33:50;4.07;;;1.42;;
33714;SDS011;20043;50.998;4.754;2023-04-03T12:36:26;2.65;;;1.50;;
33714;SDS011;20043;50.998;4.754;2023-04-03T12:39:25;4.47;;;1.55;;
33714;SDS011;20043;50.998;4.754;2023-04-03T12:45:20;5.47;;;1.75;;
33714;SDS011;20043;50.998;4.754;2023-04-03T12:47:48;5.35;;;1.88;;
33714;SDS011;20043;50.998;4.754;2023-04-03T12:50:33;5.20;;;1.75;;
33714;SDS011;20043;50.998;4.754;2023-04-03T12:53:00;6.30;;;2.17;;
33714;SDS011;20043;50.998;4.754;2023-04-03T12:55:31;4.28;;;1.58;;
33714;SDS011;20043;50.998;4.754;2023-04-03T12:57:57;5.68;;;1.58;;
33714;SDS011;20043;50.998;4.754;2023-04-03T13:01:03;4.38;;;1.73;;
33714;SDS011;20043;50.998;4.754;2023-04-03T13:03:36;4.28;;;1.67;;
33714;SDS011;20043;50.998;4.754;2023-04-03T13:06:04;3.30;;;1.60;;
33714;SDS011;20043;50.998;4.754;2023-04-03T13:08:30;4.00;;;1.73;;
33714;SDS011;20043;50.998;4.754;2023-04-03T13:11:01;6.07;;;1.67;;
33714;SDS011;20043;50.998;4.754;2023-04-03T13:13:30;4.47;;;1.88;;
33714;SDS011;20043;50.998;4.754;2023-04-03T13:15:56;5.50;;;1.85;;
33714;SDS011;20043;50.998;4.754;2023-04-03T13:20:57;2.53;;;1.45;;
33714;SDS011;20043;50.998;4.754;2023-04-03T13:23:26;4.10;;;1.60;;
33714;SDS011;20043;50.998;4.754;2023-04-03T13:25:53;4.55;;;1.70;;
33714;SDS011;20043;50.998;4.754;2023-04-03T13:28:21;10.25;;;1.70;;
33714;SDS011;20043;50.998;4.754;2023-04-03T13:33:22;4.18;;;1.88;;
33714;SDS011;20043;50.998;4.754;2023-04-03T13:36:09;5.45;;;1.85;;
33714;SDS011;20043;50.998;4.754;2023-04-03T13:38:43;4.13;;;1.92;;
33714;SDS011;20043;50.998;4.754;2023-04-03T13:46:47;6.55;;;1.85;;
33714;SDS011;20043;50.998;4.754;2023-04-03T13:52:22;4.40;;;1.42;;
33714;SDS011;20043;50.998;4.754;2023-04-03T13:54:52;6.28;;;1.58;;
33714;SDS011;20043;50.998;4.754;2023-04-03T13:57:23;5.38;;;1.83;;
33714;SDS011;20043;50.998;4.754;2023-04-03T13:59:48;5.60;;;1.73;;
33714;SDS011;20043;50.998;4.754;2023-04-03T14:02:20;4.63;;;1.50;;
33714;SDS011;20043;50.998;4.754;2023-04-03T14:04:57;5.18;;;1.70;;
33714;SDS011;20043;50.998;4.754;2023-04-03T14:07:26;3.63;;;1.70;;
33714;SDS011;20043;50.998;4.754;2023-04-03T14:09:54;5.80;;;1.60;;
33714;SDS011;20043;50.998;4.754;2023-04-03T14:12:27;3.78;;;1.40;;
33714;SDS011;20043;50.998;4.754;2023-04-03T14:14:57;4.60;;;1.40;;
33714;SDS011;20043;50.998;4.754;2023-04-03T14:17:25;4.78;;;1.60;;
33714;SDS011;20043;50.998;4.754;2023-04-03T14:19:52;3.00;;;1.50;;
33714;SDS011;20043;50.998;4.754;2023-04-03T14:22:22;5.05;;;1.60;;
33714;SDS011;20043;50.998;4.754;2023-04-03T14:24:51;3.60;;;1.27;;
33714;SDS011;20043;50.998;4.754;2023-04-03T14:27:21;2.65;;;1.40;;
33714;SDS011;20043;50.998;4.754;2023-04-03T14:29:52;3.25;;;1.38;;
33714;SDS011;20043;50.998;4.754;2023-04-03T14:32:21;4.25;;;1.67;;
33714;SDS011;20043;50.998;4.754;2023-04-03T14:34:48;4.90;;;1.45;;
33714;SDS011;20043;50.998;4.754;2023-04-03T14:37:16;4.43;;;1.50;;
33714;SDS011;20043;50.998;4.754;2023-04-03T14:39:44;4.25;;;1.48;;
33714;SDS011;20043;50.998;4.754;2023-04-03T14:42:14;5.25;;;1.60;;
33714;SDS011;20043;50.998;4.754;2023-04-03T14:44:44;2.78;;;1.52;;
33714;SDS011;20043;50.998;4.754;2023-04-03T14:47:11;6.88;;;1.70;;
33714;SDS011;20043;50.998;4.754;2023-04-03T14:49:38;3.08;;;1.40;;
33714;SDS011;20043;50.998;4.754;2023-04-03T14:52:04;4.00;;;1.63;;
33714;SDS011;20043;50.998;4.754;2023-04-03T14:54:30;7.20;;;1.73;;
33714;SDS011;20043;50.998;4.754;2023-04-03T14:56:57;2.53;;;1.40;;
33714;SDS011;20043;50.998;4.754;2023-04-03T14:59:24;3.88;;;1.40;;
33714;SDS011;20043;50.998;4.754;2023-04-03T15:01:51;4.53;;;1.42;;
33714;SDS011;20043;50.998;4.754;2023-04-03T15:04:18;5.63;;;1.67;;
33714;SDS011;20043;50.998;4.754;2023-04-03T15:06:45;2.75;;;1.48;;
33714;SDS011;20043;50.998;4.754;2023-04-03T15:09:15;3.72;;;1.50;;
33714;SDS011;20043;50.998;4.754;2023-04-03T15:11:49;3.92;;;1.58;;
33714;SDS011;20043;50.998;4.754;2023-04-03T15:14:15;2.45;;;1.40;;
33714;SDS011;20043;50.998;4.754;2023-04-03T15:16:41;4.28;;;1.75;;
33714;SDS011;20043;50.998;4.754;2023-04-03T15:19:07;4.53;;;1.63;;
33714;SDS011;20043;50.998;4.754;2023-04-03T15:21:32;4.38;;;1.90;;
33714;SDS011;20043;50.998;4.754;2023-04-03T15:23:58;6.03;;;1.85;;
33714;SDS011;20043;50.998;4.754;2023-04-03T15:26:24;7.78;;;1.80;;
33714;SDS011;20043;50.998;4.754;2023-04-03T15:28:50;4.70;;;1.60;;
33714;SDS011;20043;50.998;4.754;2023-04-03T15:31:16;4.90;;;1.88;;
33714;SDS011;20043;50.998;4.754;2023-04-03T15:33:41;4.88;;;1.60;;
33714;SDS011;20043;50.998;4.754;2023-04-03T15:36:07;5.18;;;1.40;;
33714;SDS011;20043;50.998;4.754;2023-04-03T15:38:33;3.28;;;1.50;;
33714;SDS011;20043;50.998;4.754;2023-04-03T15:40:59;7.03;;;1.60;;
33714;SDS011;20043;50.998;4.754;2023-04-03T15:43:25;5.90;;;1.67;;
33714;SDS011;20043;50.998;4.754;2023-04-03T15:45:50;3.05;;;1.45;;
33714;SDS011;20043;50.998;4.754;2023-04-03T15:48:17;5.50;;;1.60;;
33714;SDS011;20043;50.998;4.754;2023-04-03T15:50:43;6.47;;;1.70;;
33714;SDS011;20043;50.998;4.754;2023-04-03T15:53:09;8.63;;;1.85;;
33714;SDS011;20043;50.998;4.754;2023-04-03T15:55:35;5.32;;;1.88;;
33714;SDS011;20043;50.998;4.754;2023-04-03T15:58:02;6.57;;;2.00;;
33714;SDS011;20043;50.998;4.754;2023-04-03T16:00:29;5.00;;;1.77;;
33714;SDS011;20043;50.998;4.754;2023-04-03T16:02:57;3.40;;;1.40;;
33714;SDS011;20043;50.998;4.754;2023-04-03T16:05:28;3.72;;;1.83;;
33714;SDS011;20043;50.998;4.754;2023-04-03T16:08:01;6.55;;;1.58;;
33714;SDS011;20043;50.998;4.754;2023-04-03T16:10:27;4.28;;;1.92;;
33714;SDS011;20043;50.998;4.754;2023-04-03T16:12:53;4.53;;;1.73;;
33714;SDS011;20043;50.998;4.754;2023-04-03T16:15:19;6.28;;;2.10;;
33714;SDS011;20043;50.998;4.754;2023-04-03T16:17:44;3.83;;;1.60;;
33714;SDS011;20043;50.998;4.754;2023-04-03T16:20:10;5.07;;;1.90;;
33714;SDS011;20043;50.998;4.754;2023-04-03T16:22:37;4.63;;;1.52;;
33714;SDS011;20043;50.998;4.754;2023-04-03T16:25:04;5.95;;;2.22;;
33714;SDS011;20043;50.998;4.754;2023-04-03T16:27:31;5.57;;;2.00;;
33714;SDS011;20043;50.998;4.754;2023-04-03T16:29:57;5.93;;;2.20;;
33714;SDS011;20043;50.998;4.754;2023-04-03T16:32:26;6.70;;;1.80;;
33714;SDS011;20043;50.998;4.754;2023-04-03T16:34:55;6.78;;;2.05;;
33714;SDS011;20043;50.998;4.754;2023-04-03T16:37:21;5.20;;;1.67;;